sensor_id;sensor_type;location;lat;lon;timestamp;P1;durP1;ratioP1;P2;durP2;ratioP2
9880;SDS011;4979;51.014;6.678;2022-07-25T00:00:28;7.45;;;5.55;;
9880;SDS011;4979;51.014;6.678;2022-07-25T00:02:53;7.43;;;6.72;;
9880;SDS011;4979;51.014;6.678;2022-07-25T00:05:19;11.55;;;6.10;;
9880;SDS011;4979;51.014;6.678;2022-07-25T00:07:45;8.05;;;6.55;;
9880;SDS011;4979;51.014;6.678;2022-07-25T00:10:10;8.45;;;6.60;;
9880;SDS011;4979;51.014;6.678;2022-07-25T00:12:36;6.78;;;6.10;;
9880;SDS011;4979;51.014;6.678;2022-07-25T00:15:03;8.13;;;5.45;;
9880;SDS011;4979;51.014;6.678;2022-07-25T00:17:29;9.20;;;5.97;;
9880;SDS011;4979;51.014;6.678;2022-07-25T00:19:54;6.68;;;5.60;;
9880;SDS011;4979;51.014;6.678;2022-07-25T00:22:20;7.18;;;6.32;;
9880;SDS011;4979;51.014;6.678;2022-07-25T00:24:46;9.60;;;5.85;;
9880;SDS011;4979;51.014;6.678;2022-07-25T00:27:11;7.72;;;6.50;;
9880;SDS011;4979;51.014;6.678;2022-07-25T00:29:37;6.55;;;5.95;;
9880;SDS011;4979;51.014;6.678;2022-07-25T00:32:03;6.47;;;5.88;;
9880;SDS011;4979;51.014;6.678;2022-07-25T00:34:29;9.10;;;6.25;;
9880;SDS011;4979;51.014;6.678;2022-07-25T00:36:54;7.18;;;6.25;;
9880;SDS011;4979;51.014;6.678;2022-07-25T00:39:20;11.77;;;6.78;;
9880;SDS011;4979;51.014;6.678;2022-07-25T00:41:45;8.55;;;5.88;;
9880;SDS011;4979;51.014;6.678;2022-07-25T00:44:24;11.40;;;6.47;;
9880;SDS011;4979;51.014;6.678;2022-07-25T00:46:51;12.13;;;6.80;;
9880;SDS011;4979;51.014;6.678;2022-07-25T00:49:17;10.73;;;6.55;;
9880;SDS011;4979;51.014;6.678;2022-07-25T00:51:43;15.68;;;7.28;;
9880;SDS011;4979;51.014;6.678;2022-07-25T00:54:10;10.07;;;6.80;;
9880;SDS011;4979;51.014;6.678;2022-07-25T00:56:36;9.77;;;6.30;;
9880;SDS011;4979;51.014;6.678;2022-07-25T00:59:02;8.95;;;6.57;;
9880;SDS011;4979;51.014;6.678;2022-07-25T01:01:28;8.23;;;6.53;;
9880;SDS011;4979;51.014;6.678;2022-07-25T01:03:54;8.20;;;6.25;;
9880;SDS011;4979;51.014;6.678;2022-07-25T01:06:19;8.23;;;6.32;;
9880;SDS011;4979;51.014;6.678;2022-07-25T01:08:46;9.70;;;6.50;;
9880;SDS011;4979;51.014;6.678;2022-07-25T01:11:12;7.20;;;6.45;;
9880;SDS011;4979;51.014;6.678;2022-07-25T01:13:38;6.88;;;6.28;;
9880;SDS011;4979;51.014;6.678;2022-07-25T01:16:03;8.18;;;6.10;;
9880;SDS011;4979;51.014;6.678;2022-07-25T01:18:29;8.02;;;6.25;;
9880;SDS011;4979;51.014;6.678;2022-07-25T01:20:55;7.32;;;6.05;;
9880;SDS011;4979;51.014;6.678;2022-07-25T01:23:20;6.70;;;6.10;;
9880;SDS011;4979;51.014;6.678;2022-07-25T01:25:46;6.13;;;5.53;;
9880;SDS011;4979;51.014;6.678;2022-07-25T01:28:12;9.35;;;6.00;;
9880;SDS011;4979;51.014;6.678;2022-07-25T01:30:37;7.50;;;6.20;;
9880;SDS011;4979;51.014;6.678;2022-07-25T01:33:03;6.53;;;5.70;;
9880;SDS011;4979;51.014;6.678;2022-07-25T01:35:28;6.60;;;5.90;;
9880;SDS011;4979;51.014;6.678;2022-07-25T01:37:54;7.38;;;6.25;;
9880;SDS011;4979;51.014;6.678;2022-07-25T01:40:20;6.80;;;6.10;;
9880;SDS011;4979;51.014;6.678;2022-07-25T01:42:46;7.72;;;6.35;;
9880;SDS011;4979;51.014;6.678;2022-07-25T01:45:12;6.88;;;5.65;;
9880;SDS011;4979;51.014;6.678;2022-07-25T01:47:38;7.00;;;5.82;;
9880;SDS011;4979;51.014;6.678;2022-07-25T01:50:04;9.70;;;6.60;;
9880;SDS011;4979;51.014;6.678;2022-07-25T01:52:30;6.70;;;5.82;;
9880;SDS011;4979;51.014;6.678;2022-07-25T01:54:56;8.73;;;6.57;;
9880;SDS011;4979;51.014;6.678;2022-07-25T01:57:22;5.63;;;5.13;;
9880;SDS011;4979;51.014;6.678;2022-07-25T01:59:47;6.60;;;5.70;;
9880;SDS011;4979;51.014;6.678;2022-07-25T02:02:13;6.88;;;6.03;;
9880;SDS011;4979;51.014;6.678;2022-07-25T02:04:39;6.60;;;6.00;;
9880;SDS011;4979;51.014;6.678;2022-07-25T02:07:04;7.97;;;5.47;;
9880;SDS011;4979;51.014;6.678;2022-07-25T02:09:30;6.75;;;6.05;;
9880;SDS011;4979;51.014;6.678;2022-07-25T02:11:55;6.85;;;6.10;;
9880;SDS011;4979;51.014;6.678;2022-07-25T02:14:21;9.98;;;6.18;;
9880;SDS011;4979;51.014;6.678;2022-07-25T02:16:47;11.18;;;6.30;;
9880;SDS011;4979;51.014;6.678;2022-07-25T02:19:13;6.35;;;5.75;;
9880;SDS011;4979;51.014;6.678;2022-07-25T02:21:38;8.52;;;6.32;;
9880;SDS011;4979;51.014;6.678;2022-07-25T02:24:04;7.65;;;6.40;;
9880;SDS011;4979;51.014;6.678;2022-07-25T02:26:31;7.47;;;6.05;;
9880;SDS011;4979;51.014;6.678;2022-07-25T02:28:57;7.10;;;6.35;;
9880;SDS011;4979;51.014;6.678;2022-07-25T02:31:23;9.23;;;6.43;;
9880;SDS011;4979;51.014;6.678;2022-07-25T02:33:48;8.18;;;6.13;;
9880;SDS011;4979;51.014;6.678;2022-07-25T02:36:14;6.88;;;6.28;;
9880;SDS011;4979;51.014;6.678;2022-07-25T02:38:40;7.07;;;6.20;;
9880;SDS011;4979;51.014;6.678;2022-07-25T02:41:06;7.95;;;5.88;;
9880;SDS011;4979;51.014;6.678;2022-07-25T02:43:32;6.55;;;5.90;;
9880;SDS011;4979;51.014;6.678;2022-07-25T02:45:57;7.30;;;6.10;;
9880;SDS011;4979;51.014;6.678;2022-07-25T02:48:23;8.18;;;5.85;;
9880;SDS011;4979;51.014;6.678;2022-07-25T02:50:49;10.38;;;6.10;;
9880;SDS011;4979;51.014;6.678;2022-07-25T02:53:14;6.90;;;6.03;;
9880;SDS011;4979;51.014;6.678;2022-07-25T02:55:40;8.70;;;5.93;;
9880;SDS011;4979;51.014;6.678;2022-07-25T02:58:05;8.82;;;5.80;;
9880;SDS011;4979;51.014;6.678;2022-07-25T03:00:31;6.85;;;6.18;;
9880;SDS011;4979;51.014;6.678;2022-07-25T03:02:57;7.07;;;6.18;;
9880;SDS011;4979;51.014;6.678;2022-07-25T03:05:23;8.65;;;5.85;;
9880;SDS011;4979;51.014;6.678;2022-07-25T03:07:48;6.78;;;6.00;;
9880;SDS011;4979;51.014;6.678;2022-07-25T03:10:14;7.15;;;6.05;;
9880;SDS011;4979;51.014;6.678;2022-07-25T03:12:40;7.40;;;5.63;;
9880;SDS011;4979;51.014;6.678;2022-07-25T03:15:07;6.85;;;5.53;;
9880;SDS011;4979;51.014;6.678;2022-07-25T03:17:35;7.30;;;5.65;;
9880;SDS011;4979;51.014;6.678;2022-07-25T03:20:02;7.78;;;6.07;;
9880;SDS011;4979;51.014;6.678;2022-07-25T03:22:29;7.47;;;6.32;;
9880;SDS011;4979;51.014;6.678;2022-07-25T03:24:54;9.75;;;6.20;;
9880;SDS011;4979;51.014;6.678;2022-07-25T03:27:20;8.38;;;6.25;;
9880;SDS011;4979;51.014;6.678;2022-07-25T03:29:45;6.18;;;5.57;;
9880;SDS011;4979;51.014;6.678;2022-07-25T03:32:11;8.05;;;6.13;;
9880;SDS011;4979;51.014;6.678;2022-07-25T03:34:37;7.50;;;6.30;;
9880;SDS011;4979;51.014;6.678;2022-07-25T03:37:02;7.15;;;5.95;;
9880;SDS011;4979;51.014;6.678;2022-07-25T03:39:29;8.82;;;6.18;;
9880;SDS011;4979;51.014;6.678;2022-07-25T03:41:55;7.78;;;6.60;;
9880;SDS011;4979;51.014;6.678;2022-07-25T03:44:21;8.98;;;6.30;;
9880;SDS011;4979;51.014;6.678;2022-07-25T03:46:48;6.80;;;6.10;;
9880;SDS011;4979;51.014;6.678;2022-07-25T03:49:14;9.60;;;6.80;;
9880;SDS011;4979;51.014;6.678;2022-07-25T03:51:40;8.00;;;6.60;;
9880;SDS011;4979;51.014;6.678;2022-07-25T03:54:05;9.63;;;6.60;;
9880;SDS011;4979;51.014;6.678;2022-07-25T03:56:36;8.10;;;7.05;;
9880;SDS011;4979;51.014;6.678;2022-07-25T03:59:04;8.07;;;6.05;;
9880;SDS011;4979;51.014;6.678;2022-07-25T04:01:30;7.78;;;6.30;;
9880;SDS011;4979;51.014;6.678;2022-07-25T04:03:56;7.28;;;5.85;;
9880;SDS011;4979;51.014;6.678;2022-07-25T04:06:23;8.98;;;6.43;;
9880;SDS011;4979;51.014;6.678;2022-07-25T04:08:49;7.03;;;6.43;;
9880;SDS011;4979;51.014;6.678;2022-07-25T04:11:14;7.00;;;6.22;;
9880;SDS011;4979;51.014;6.678;2022-07-25T04:13:40;6.95;;;6.13;;
9880;SDS011;4979;51.014;6.678;2022-07-25T04:16:06;6.80;;;6.20;;
9880;SDS011;4979;51.014;6.678;2022-07-25T04:18:32;8.57;;;6.57;;
9880;SDS011;4979;51.014;6.678;2022-07-25T04:20:58;6.78;;;6.07;;
9880;SDS011;4979;51.014;6.678;2022-07-25T04:23:23;10.00;;;7.15;;
9880;SDS011;4979;51.014;6.678;2022-07-25T04:25:49;8.57;;;6.25;;
9880;SDS011;4979;51.014;6.678;2022-07-25T04:28:15;8.38;;;6.30;;
9880;SDS011;4979;51.014;6.678;2022-07-25T04:30:40;10.85;;;7.18;;
9880;SDS011;4979;51.014;6.678;2022-07-25T04:33:09;7.88;;;6.95;;
9880;SDS011;4979;51.014;6.678;2022-07-25T04:35:35;7.55;;;6.78;;
9880;SDS011;4979;51.014;6.678;2022-07-25T04:38:01;10.43;;;6.30;;
9880;SDS011;4979;51.014;6.678;2022-07-25T04:40:26;9.05;;;6.60;;
9880;SDS011;4979;51.014;6.678;2022-07-25T04:42:52;7.82;;;6.68;;
9880;SDS011;4979;51.014;6.678;2022-07-25T04:45:17;6.60;;;5.65;;
9880;SDS011;4979;51.014;6.678;2022-07-25T04:47:43;9.50;;;6.68;;
9880;SDS011;4979;51.014;6.678;2022-07-25T04:50:09;7.38;;;6.43;;
9880;SDS011;4979;51.014;6.678;2022-07-25T04:52:34;7.45;;;6.03;;
9880;SDS011;4979;51.014;6.678;2022-07-25T04:55:00;8.60;;;6.18;;
9880;SDS011;4979;51.014;6.678;2022-07-25T04:57:26;8.25;;;6.45;;
9880;SDS011;4979;51.014;6.678;2022-07-25T04:59:51;6.63;;;6.03;;
9880;SDS011;4979;51.014;6.678;2022-07-25T05:02:17;7.50;;;6.18;;
9880;SDS011;4979;51.014;6.678;2022-07-25T05:04:42;9.15;;;6.22;;
9880;SDS011;4979;51.014;6.678;2022-07-25T05:07:08;8.38;;;5.93;;
9880;SDS011;4979;51.014;6.678;2022-07-25T05:09:34;5.95;;;5.35;;
9880;SDS011;4979;51.014;6.678;2022-07-25T05:11:59;7.43;;;6.07;;
9880;SDS011;4979;51.014;6.678;2022-07-25T05:14:25;6.47;;;5.88;;
9880;SDS011;4979;51.014;6.678;2022-07-25T05:16:50;12.68;;;6.28;;
9880;SDS011;4979;51.014;6.678;2022-07-25T05:19:16;6.30;;;5.75;;
9880;SDS011;4979;51.014;6.678;2022-07-25T05:21:41;8.00;;;6.05;;
9880;SDS011;4979;51.014;6.678;2022-07-25T05:24:07;7.75;;;6.28;;
9880;SDS011;4979;51.014;6.678;2022-07-25T05:26:33;8.73;;;6.90;;
9880;SDS011;4979;51.014;6.678;2022-07-25T05:28:58;7.05;;;5.07;;
9880;SDS011;4979;51.014;6.678;2022-07-25T05:31:24;12.48;;;6.82;;
9880;SDS011;4979;51.014;6.678;2022-07-25T05:33:49;6.75;;;6.07;;
9880;SDS011;4979;51.014;6.678;2022-07-25T05:36:15;10.60;;;6.47;;
9880;SDS011;4979;51.014;6.678;2022-07-25T05:38:42;8.25;;;5.70;;
9880;SDS011;4979;51.014;6.678;2022-07-25T05:41:07;8.05;;;5.82;;
9880;SDS011;4979;51.014;6.678;2022-07-25T05:43:33;6.75;;;6.07;;
9880;SDS011;4979;51.014;6.678;2022-07-25T05:46:00;11.65;;;6.20;;
9880;SDS011;4979;51.014;6.678;2022-07-25T05:48:26;10.38;;;5.95;;
9880;SDS011;4979;51.014;6.678;2022-07-25T05:50:52;8.32;;;5.95;;
9880;SDS011;4979;51.014;6.678;2022-07-25T05:53:17;6.40;;;5.80;;
9880;SDS011;4979;51.014;6.678;2022-07-25T05:55:43;8.80;;;5.65;;
9880;SDS011;4979;51.014;6.678;2022-07-25T05:58:09;7.43;;;5.90;;
9880;SDS011;4979;51.014;6.678;2022-07-25T06:00:35;7.65;;;6.32;;
9880;SDS011;4979;51.014;6.678;2022-07-25T06:03:00;11.55;;;5.80;;
9880;SDS011;4979;51.014;6.678;2022-07-25T06:05:26;11.52;;;5.75;;
9880;SDS011;4979;51.014;6.678;2022-07-25T06:07:52;6.65;;;5.97;;
9880;SDS011;4979;51.014;6.678;2022-07-25T06:10:18;8.55;;;6.03;;
9880;SDS011;4979;51.014;6.678;2022-07-25T06:12:44;6.88;;;5.75;;
9880;SDS011;4979;51.014;6.678;2022-07-25T06:15:09;8.60;;;6.15;;
9880;SDS011;4979;51.014;6.678;2022-07-25T06:17:35;7.35;;;5.45;;
9880;SDS011;4979;51.014;6.678;2022-07-25T06:20:01;8.10;;;6.18;;
9880;SDS011;4979;51.014;6.678;2022-07-25T06:22:26;6.47;;;5.05;;
9880;SDS011;4979;51.014;6.678;2022-07-25T06:24:53;5.82;;;5.20;;
9880;SDS011;4979;51.014;6.678;2022-07-25T06:27:19;6.85;;;5.43;;
9880;SDS011;4979;51.014;6.678;2022-07-25T06:29:44;6.40;;;5.25;;
9880;SDS011;4979;51.014;6.678;2022-07-25T06:32:10;6.00;;;5.40;;
9880;SDS011;4979;51.014;6.678;2022-07-25T06:34:35;6.28;;;5.35;;
9880;SDS011;4979;51.014;6.678;2022-07-25T06:37:02;6.90;;;5.60;;
9880;SDS011;4979;51.014;6.678;2022-07-25T06:39:28;6.13;;;5.50;;
9880;SDS011;4979;51.014;6.678;2022-07-25T06:41:53;8.27;;;6.10;;
9880;SDS011;4979;51.014;6.678;2022-07-25T06:44:19;6.55;;;5.70;;
9880;SDS011;4979;51.014;6.678;2022-07-25T06:46:45;7.00;;;5.80;;
9880;SDS011;4979;51.014;6.678;2022-07-25T06:49:11;5.78;;;5.28;;
9880;SDS011;4979;51.014;6.678;2022-07-25T06:51:36;6.57;;;5.57;;
9880;SDS011;4979;51.014;6.678;2022-07-25T06:54:02;7.13;;;5.40;;
9880;SDS011;4979;51.014;6.678;2022-07-25T06:56:27;12.82;;;6.13;;
9880;SDS011;4979;51.014;6.678;2022-07-25T06:58:55;6.90;;;5.85;;
9880;SDS011;4979;51.014;6.678;2022-07-25T07:01:22;6.57;;;5.90;;
9880;SDS011;4979;51.014;6.678;2022-07-25T07:03:47;8.50;;;5.30;;
9880;SDS011;4979;51.014;6.678;2022-07-25T07:06:13;9.70;;;5.90;;
9880;SDS011;4979;51.014;6.678;2022-07-25T07:08:39;9.27;;;5.72;;
9880;SDS011;4979;51.014;6.678;2022-07-25T07:11:05;8.07;;;5.68;;
9880;SDS011;4979;51.014;6.678;2022-07-25T07:13:31;9.50;;;6.45;;
9880;SDS011;4979;51.014;6.678;2022-07-25T07:15:57;7.63;;;5.90;;
9880;SDS011;4979;51.014;6.678;2022-07-25T07:18:22;6.05;;;5.38;;
9880;SDS011;4979;51.014;6.678;2022-07-25T07:20:48;7.30;;;5.63;;
9880;SDS011;4979;51.014;6.678;2022-07-25T07:23:14;7.45;;;6.10;;
9880;SDS011;4979;51.014;6.678;2022-07-25T07:25:39;6.72;;;5.95;;
9880;SDS011;4979;51.014;6.678;2022-07-25T07:28:05;7.32;;;5.38;;
9880;SDS011;4979;51.014;6.678;2022-07-25T07:30:31;7.57;;;5.97;;
9880;SDS011;4979;51.014;6.678;2022-07-25T07:32:57;9.82;;;6.70;;
9880;SDS011;4979;51.014;6.678;2022-07-25T07:35:23;6.53;;;5.90;;
9880;SDS011;4979;51.014;6.678;2022-07-25T07:37:49;8.43;;;5.70;;
9880;SDS011;4979;51.014;6.678;2022-07-25T07:40:16;10.05;;;5.80;;
9880;SDS011;4979;51.014;6.678;2022-07-25T07:42:43;10.90;;;6.30;;
9880;SDS011;4979;51.014;6.678;2022-07-25T07:45:10;10.60;;;6.25;;
9880;SDS011;4979;51.014;6.678;2022-07-25T07:47:37;13.20;;;7.25;;
9880;SDS011;4979;51.014;6.678;2022-07-25T07:50:03;10.55;;;6.90;;
9880;SDS011;4979;51.014;6.678;2022-07-25T07:52:29;13.52;;;7.30;;
9880;SDS011;4979;51.014;6.678;2022-07-25T07:54:54;7.60;;;5.70;;
9880;SDS011;4979;51.014;6.678;2022-07-25T07:57:38;7.40;;;5.72;;
9880;SDS011;4979;51.014;6.678;2022-07-25T08:00:04;7.97;;;5.80;;
9880;SDS011;4979;51.014;6.678;2022-07-25T08:02:31;9.18;;;5.53;;
9880;SDS011;4979;51.014;6.678;2022-07-25T08:04:56;8.75;;;6.13;;
9880;SDS011;4979;51.014;6.678;2022-07-25T08:07:22;9.60;;;5.80;;
9880;SDS011;4979;51.014;6.678;2022-07-25T08:09:47;6.30;;;5.30;;
9880;SDS011;4979;51.014;6.678;2022-07-25T08:12:13;8.35;;;5.82;;
9880;SDS011;4979;51.014;6.678;2022-07-25T08:14:39;8.90;;;6.30;;
9880;SDS011;4979;51.014;6.678;2022-07-25T08:17:05;9.43;;;5.75;;
9880;SDS011;4979;51.014;6.678;2022-07-25T08:19:30;6.30;;;5.70;;
9880;SDS011;4979;51.014;6.678;2022-07-25T08:21:56;7.57;;;5.82;;
9880;SDS011;4979;51.014;6.678;2022-07-25T08:24:21;8.32;;;5.45;;
9880;SDS011;4979;51.014;6.678;2022-07-25T08:26:47;8.07;;;5.75;;
9880;SDS011;4979;51.014;6.678;2022-07-25T08:29:12;10.00;;;6.10;;
9880;SDS011;4979;51.014;6.678;2022-07-25T08:31:38;7.95;;;6.15;;
9880;SDS011;4979;51.014;6.678;2022-07-25T08:34:04;14.45;;;6.28;;
9880;SDS011;4979;51.014;6.678;2022-07-25T08:36:29;9.55;;;5.60;;
9880;SDS011;4979;51.014;6.678;2022-07-25T08:38:55;7.93;;;5.22;;
9880;SDS011;4979;51.014;6.678;2022-07-25T08:41:20;6.78;;;5.53;;
9880;SDS011;4979;51.014;6.678;2022-07-25T08:43:47;10.55;;;5.93;;
9880;SDS011;4979;51.014;6.678;2022-07-25T08:46:14;5.45;;;5.05;;
9880;SDS011;4979;51.014;6.678;2022-07-25T08:48:40;8.27;;;5.68;;
9880;SDS011;4979;51.014;6.678;2022-07-25T08:51:06;10.45;;;6.00;;
9880;SDS011;4979;51.014;6.678;2022-07-25T08:53:33;8.77;;;5.95;;
9880;SDS011;4979;51.014;6.678;2022-07-25T08:56:02;6.78;;;5.93;;
9880;SDS011;4979;51.014;6.678;2022-07-25T08:58:29;9.40;;;5.57;;
9880;SDS011;4979;51.014;6.678;2022-07-25T09:00:56;9.75;;;5.45;;
9880;SDS011;4979;51.014;6.678;2022-07-25T09:03:22;7.38;;;6.35;;
9880;SDS011;4979;51.014;6.678;2022-07-25T09:05:47;7.43;;;5.18;;
9880;SDS011;4979;51.014;6.678;2022-07-25T09:08:14;8.85;;;5.95;;
9880;SDS011;4979;51.014;6.678;2022-07-25T09:10:51;5.97;;;5.20;;
9880;SDS011;4979;51.014;6.678;2022-07-25T09:13:18;6.38;;;5.22;;
9880;SDS011;4979;51.014;6.678;2022-07-25T09:15:46;6.78;;;5.45;;
9880;SDS011;4979;51.014;6.678;2022-07-25T09:18:14;6.22;;;5.50;;
9880;SDS011;4979;51.014;6.678;2022-07-25T09:20:48;6.40;;;5.65;;
9880;SDS011;4979;51.014;6.678;2022-07-25T09:23:31;6.10;;;5.40;;
9880;SDS011;4979;51.014;6.678;2022-07-25T09:28:46;8.77;;;5.82;;
9880;SDS011;4979;51.014;6.678;2022-07-25T09:31:14;6.45;;;5.72;;
9880;SDS011;4979;51.014;6.678;2022-07-25T09:33:46;7.25;;;5.40;;
9880;SDS011;4979;51.014;6.678;2022-07-25T09:36:16;5.97;;;5.45;;
9880;SDS011;4979;51.014;6.678;2022-07-25T09:38:55;7.05;;;5.45;;
9880;SDS011;4979;51.014;6.678;2022-07-25T09:44:14;6.63;;;5.88;;
9880;SDS011;4979;51.014;6.678;2022-07-25T09:46:43;6.93;;;5.20;;
9880;SDS011;4979;51.014;6.678;2022-07-25T09:49:09;18.92;;;6.43;;
9880;SDS011;4979;51.014;6.678;2022-07-25T09:51:38;6.28;;;5.63;;
9880;SDS011;4979;51.014;6.678;2022-07-25T09:54:05;6.03;;;5.13;;
9880;SDS011;4979;51.014;6.678;2022-07-25T09:56:31;7.93;;;4.80;;
9880;SDS011;4979;51.014;6.678;2022-07-25T09:58:57;6.25;;;5.15;;
9880;SDS011;4979;51.014;6.678;2022-07-25T10:01:24;5.63;;;5.05;;
9880;SDS011;4979;51.014;6.678;2022-07-25T10:04:08;8.77;;;5.30;;
9880;SDS011;4979;51.014;6.678;2022-07-25T10:06:45;8.10;;;5.18;;
9880;SDS011;4979;51.014;6.678;2022-07-25T10:09:25;7.15;;;5.35;;
9880;SDS011;4979;51.014;6.678;2022-07-25T10:12:08;6.05;;;5.07;;
9880;SDS011;4979;51.014;6.678;2022-07-25T10:14:35;6.05;;;5.43;;
9880;SDS011;4979;51.014;6.678;2022-07-25T10:17:01;8.25;;;5.40;;
9880;SDS011;4979;51.014;6.678;2022-07-25T10:19:34;10.18;;;5.35;;
9880;SDS011;4979;51.014;6.678;2022-07-25T10:22:10;8.02;;;6.15;;
9880;SDS011;4979;51.014;6.678;2022-07-25T10:24:36;18.08;;;6.22;;
9880;SDS011;4979;51.014;6.678;2022-07-25T10:27:12;9.98;;;5.53;;
9880;SDS011;4979;51.014;6.678;2022-07-25T10:29:47;11.30;;;5.68;;
9880;SDS011;4979;51.014;6.678;2022-07-25T10:32:16;11.10;;;4.88;;
9880;SDS011;4979;51.014;6.678;2022-07-25T10:34:50;8.55;;;4.38;;
9880;SDS011;4979;51.014;6.678;2022-07-25T10:37:16;5.70;;;4.45;;
9880;SDS011;4979;51.014;6.678;2022-07-25T10:39:43;7.75;;;3.35;;
9880;SDS011;4979;51.014;6.678;2022-07-25T10:42:13;4.55;;;4.15;;
9880;SDS011;4979;51.014;6.678;2022-07-25T10:47:08;6.30;;;3.60;;
9880;SDS011;4979;51.014;6.678;2022-07-25T10:49:37;4.65;;;3.42;;
9880;SDS011;4979;51.014;6.678;2022-07-25T10:52:05;5.53;;;3.58;;
9880;SDS011;4979;51.014;6.678;2022-07-25T10:54:35;3.55;;;3.13;;
9880;SDS011;4979;51.014;6.678;2022-07-25T10:57:02;4.70;;;3.83;;
9880;SDS011;4979;51.014;6.678;2022-07-25T11:01:59;4.13;;;3.28;;
9880;SDS011;4979;51.014;6.678;2022-07-25T11:04:26;7.93;;;3.72;;
9880;SDS011;4979;51.014;6.678;2022-07-25T11:06:52;5.30;;;3.25;;
9880;SDS011;4979;51.014;6.678;2022-07-25T11:09:20;7.10;;;3.60;;
9880;SDS011;4979;51.014;6.678;2022-07-25T11:11:50;5.55;;;3.30;;
9880;SDS011;4979;51.014;6.678;2022-07-25T11:14:19;4.13;;;3.20;;
9880;SDS011;4979;51.014;6.678;2022-07-25T11:16:45;4.45;;;3.50;;
9880;SDS011;4979;51.014;6.678;2022-07-25T11:21:55;4.43;;;3.45;;
9880;SDS011;4979;51.014;6.678;2022-07-25T11:24:41;5.47;;;3.80;;
9880;SDS011;4979;51.014;6.678;2022-07-25T11:27:09;4.78;;;3.33;;
9880;SDS011;4979;51.014;6.678;2022-07-25T11:29:37;6.15;;;3.63;;
9880;SDS011;4979;51.014;6.678;2022-07-25T11:32:07;4.00;;;3.60;;
9880;SDS011;4979;51.014;6.678;2022-07-25T11:34:35;6.47;;;3.35;;
9880;SDS011;4979;51.014;6.678;2022-07-25T11:37:12;3.90;;;3.50;;
9880;SDS011;4979;51.014;6.678;2022-07-25T11:39:39;5.93;;;3.58;;
9880;SDS011;4979;51.014;6.678;2022-07-25T11:42:16;7.28;;;3.55;;
9880;SDS011;4979;51.014;6.678;2022-07-25T11:44:47;4.20;;;3.40;;
9880;SDS011;4979;51.014;6.678;2022-07-25T11:47:27;6.15;;;3.58;;
9880;SDS011;4979;51.014;6.678;2022-07-25T11:49:58;6.15;;;3.60;;
9880;SDS011;4979;51.014;6.678;2022-07-25T11:55:11;6.28;;;3.40;;
9880;SDS011;4979;51.014;6.678;2022-07-25T11:57:40;8.15;;;3.60;;
9880;SDS011;4979;51.014;6.678;2022-07-25T12:02:39;5.97;;;3.30;;
9880;SDS011;4979;51.014;6.678;2022-07-25T12:05:06;9.88;;;3.55;;
9880;SDS011;4979;51.014;6.678;2022-07-25T12:10:00;7.78;;;3.20;;
9880;SDS011;4979;51.014;6.678;2022-07-25T12:12:26;4.75;;;3.15;;
9880;SDS011;4979;51.014;6.678;2022-07-25T12:14:52;4.95;;;3.10;;
9880;SDS011;4979;51.014;6.678;2022-07-25T12:17:17;5.35;;;2.95;;
9880;SDS011;4979;51.014;6.678;2022-07-25T12:19:46;8.73;;;3.30;;
9880;SDS011;4979;51.014;6.678;2022-07-25T12:22:11;5.32;;;2.72;;
9880;SDS011;4979;51.014;6.678;2022-07-25T12:24:37;5.70;;;3.00;;
9880;SDS011;4979;51.014;6.678;2022-07-25T12:27:03;5.43;;;3.47;;
9880;SDS011;4979;51.014;6.678;2022-07-25T12:29:28;5.85;;;3.53;;
9880;SDS011;4979;51.014;6.678;2022-07-25T12:31:54;5.32;;;3.05;;
9880;SDS011;4979;51.014;6.678;2022-07-25T12:34:19;6.55;;;3.17;;
9880;SDS011;4979;51.014;6.678;2022-07-25T12:36:45;7.43;;;3.00;;
9880;SDS011;4979;51.014;6.678;2022-07-25T12:39:10;4.35;;;2.80;;
9880;SDS011;4979;51.014;6.678;2022-07-25T12:41:36;7.07;;;2.92;;
9880;SDS011;4979;51.014;6.678;2022-07-25T12:44:03;7.88;;;3.00;;
9880;SDS011;4979;51.014;6.678;2022-07-25T12:46:29;4.78;;;2.75;;
9880;SDS011;4979;51.014;6.678;2022-07-25T12:48:55;5.88;;;2.83;;
9880;SDS011;4979;51.014;6.678;2022-07-25T12:51:21;7.53;;;2.95;;
9880;SDS011;4979;51.014;6.678;2022-07-25T12:53:47;9.38;;;3.20;;
9880;SDS011;4979;51.014;6.678;2022-07-25T12:56:13;5.53;;;3.05;;
9880;SDS011;4979;51.014;6.678;2022-07-25T12:58:42;5.38;;;2.67;;
9880;SDS011;4979;51.014;6.678;2022-07-25T13:01:07;5.90;;;2.70;;
9880;SDS011;4979;51.014;6.678;2022-07-25T13:03:33;5.88;;;2.90;;
9880;SDS011;4979;51.014;6.678;2022-07-25T13:05:58;7.10;;;2.80;;
9880;SDS011;4979;51.014;6.678;2022-07-25T13:08:24;3.67;;;2.50;;
9880;SDS011;4979;51.014;6.678;2022-07-25T13:10:49;7.25;;;2.80;;
9880;SDS011;4979;51.014;6.678;2022-07-25T13:13:15;5.05;;;2.60;;
9880;SDS011;4979;51.014;6.678;2022-07-25T13:15:41;11.65;;;2.75;;
9880;SDS011;4979;51.014;6.678;2022-07-25T13:18:06;6.03;;;2.30;;
9880;SDS011;4979;51.014;6.678;2022-07-25T13:20:32;10.20;;;2.58;;
9880;SDS011;4979;51.014;6.678;2022-07-25T13:23:00;7.03;;;2.70;;
9880;SDS011;4979;51.014;6.678;2022-07-25T13:25:25;4.25;;;2.00;;
9880;SDS011;4979;51.014;6.678;2022-07-25T13:27:51;3.95;;;1.90;;
9880;SDS011;4979;51.014;6.678;2022-07-25T13:30:16;3.72;;;1.98;;
9880;SDS011;4979;51.014;6.678;2022-07-25T13:32:42;5.88;;;2.42;;
9880;SDS011;4979;51.014;6.678;2022-07-25T13:35:08;2.75;;;2.50;;
9880;SDS011;4979;51.014;6.678;2022-07-25T13:37:34;7.05;;;2.10;;
9880;SDS011;4979;51.014;6.678;2022-07-25T13:40:00;2.70;;;2.30;;
9880;SDS011;4979;51.014;6.678;2022-07-25T13:42:26;3.97;;;2.00;;
9880;SDS011;4979;51.014;6.678;2022-07-25T13:44:52;5.07;;;2.03;;
9880;SDS011;4979;51.014;6.678;2022-07-25T13:47:17;3.63;;;2.25;;
9880;SDS011;4979;51.014;6.678;2022-07-25T13:49:43;5.60;;;2.08;;
9880;SDS011;4979;51.014;6.678;2022-07-25T13:52:09;8.35;;;2.65;;
9880;SDS011;4979;51.014;6.678;2022-07-25T13:54:34;4.13;;;1.90;;
9880;SDS011;4979;51.014;6.678;2022-07-25T13:57:01;6.40;;;2.30;;
9880;SDS011;4979;51.014;6.678;2022-07-25T13:59:27;5.57;;;2.40;;
9880;SDS011;4979;51.014;6.678;2022-07-25T14:01:53;7.93;;;2.63;;
9880;SDS011;4979;51.014;6.678;2022-07-25T14:04:26;5.85;;;2.33;;
9880;SDS011;4979;51.014;6.678;2022-07-25T14:06:52;4.18;;;2.60;;
9880;SDS011;4979;51.014;6.678;2022-07-25T14:09:18;5.45;;;2.38;;
9880;SDS011;4979;51.014;6.678;2022-07-25T14:11:45;6.35;;;2.25;;
9880;SDS011;4979;51.014;6.678;2022-07-25T14:14:11;11.77;;;2.08;;
9880;SDS011;4979;51.014;6.678;2022-07-25T14:16:37;10.85;;;2.78;;
9880;SDS011;4979;51.014;6.678;2022-07-25T14:19:03;4.55;;;2.25;;
9880;SDS011;4979;51.014;6.678;2022-07-25T14:21:29;7.93;;;2.30;;
9880;SDS011;4979;51.014;6.678;2022-07-25T14:23:58;10.20;;;2.40;;
9880;SDS011;4979;51.014;6.678;2022-07-25T14:26:24;2.88;;;2.40;;
9880;SDS011;4979;51.014;6.678;2022-07-25T14:28:52;5.53;;;2.53;;
9880;SDS011;4979;51.014;6.678;2022-07-25T14:31:19;3.40;;;2.25;;
9880;SDS011;4979;51.014;6.678;2022-07-25T14:33:45;9.93;;;2.55;;
9880;SDS011;4979;51.014;6.678;2022-07-25T14:36:12;3.03;;;2.17;;
9880;SDS011;4979;51.014;6.678;2022-07-25T14:38:37;5.43;;;2.30;;
9880;SDS011;4979;51.014;6.678;2022-07-25T14:41:03;4.03;;;2.47;;
9880;SDS011;4979;51.014;6.678;2022-07-25T14:43:29;9.45;;;2.65;;
9880;SDS011;4979;51.014;6.678;2022-07-25T14:45:55;14.95;;;3.05;;
9880;SDS011;4979;51.014;6.678;2022-07-25T14:48:21;17.02;;;3.55;;
9880;SDS011;4979;51.014;6.678;2022-07-25T14:50:46;7.53;;;2.58;;
9880;SDS011;4979;51.014;6.678;2022-07-25T14:53:12;5.40;;;2.33;;
9880;SDS011;4979;51.014;6.678;2022-07-25T14:55:38;9.02;;;2.42;;
9880;SDS011;4979;51.014;6.678;2022-07-25T14:58:04;6.68;;;2.40;;
9880;SDS011;4979;51.014;6.678;2022-07-25T15:00:30;8.68;;;2.88;;
9880;SDS011;4979;51.014;6.678;2022-07-25T15:02:59;8.70;;;2.70;;
9880;SDS011;4979;51.014;6.678;2022-07-25T15:05:25;4.22;;;2.47;;
9880;SDS011;4979;51.014;6.678;2022-07-25T15:07:51;5.03;;;2.33;;
9880;SDS011;4979;51.014;6.678;2022-07-25T15:10:16;7.00;;;2.95;;
9880;SDS011;4979;51.014;6.678;2022-07-25T15:12:47;6.10;;;2.85;;
9880;SDS011;4979;51.014;6.678;2022-07-25T15:15:14;3.72;;;2.28;;
9880;SDS011;4979;51.014;6.678;2022-07-25T15:17:39;3.42;;;2.40;;
9880;SDS011;4979;51.014;6.678;2022-07-25T15:20:05;5.28;;;2.63;;
9880;SDS011;4979;51.014;6.678;2022-07-25T15:22:31;5.50;;;2.60;;
9880;SDS011;4979;51.014;6.678;2022-07-25T15:24:57;6.00;;;2.33;;
9880;SDS011;4979;51.014;6.678;2022-07-25T15:27:22;5.85;;;2.20;;
9880;SDS011;4979;51.014;6.678;2022-07-25T15:29:48;6.43;;;2.50;;
9880;SDS011;4979;51.014;6.678;2022-07-25T15:32:14;4.47;;;2.42;;